createdAt,value
2018-09-24T00:01:47.094Z,7.20
2018-09-24T00:04:18.089Z,7.10
2018-09-24T00:06:46.162Z,7.10
2018-09-24T00:09:20.522Z,7.10
2018-09-24T00:11:52.829Z,7.10
2018-09-24T00:14:25.938Z,7.10
2018-09-24T00:16:53.982Z,7.10
2018-09-24T00:19:31.472Z,7.10
2018-09-24T00:22:02.488Z,7.10
2018-09-24T00:24:43.191Z,7.10
2018-09-24T00:27:14.143Z,7.10
2018-09-24T00:29:42.163Z,7.00
2018-09-24T00:32:16.710Z,7.00
2018-09-24T00:37:28.361Z,7.10
2018-09-24T00:40:02.810Z,7.00
2018-09-24T00:42:43.217Z,7.00
2018-09-24T00:45:17.478Z,7.00
2018-09-24T00:47:49.598Z,7.00
2018-09-24T00:50:17.650Z,7.00
2018-09-24T00:52:52.893Z,7.00
2018-09-24T00:55:23.903Z,6.90
2018-09-24T00:57:52.081Z,6.90
2018-09-24T01:00:31.789Z,7.00
2018-09-24T01:02:59.907Z,7.00
2018-09-24T01:05:30.795Z,7.10
2018-09-24T01:07:59.030Z,7.10
2018-09-24T01:10:38.838Z,7.10
2018-09-24T01:13:07.056Z,7.10
2018-09-24T01:15:40.361Z,7.10
2018-09-24T01:18:11.413Z,7.10
2018-09-24T01:20:41.503Z,7.00
2018-09-24T01:23:09.572Z,7.10
2018-09-24T01:25:40.718Z,7.10
2018-09-24T01:28:08.888Z,7.10
2018-09-24T01:30:40.974Z,7.00
2018-09-24T01:33:12.224Z,7.00
2018-09-24T01:35:40.262Z,7.00
2018-09-24T01:38:14.685Z,7.00
2018-09-24T01:40:48.977Z,7.00
2018-09-24T01:43:21.587Z,6.90
2018-09-24T01:45:55.710Z,6.90
2018-09-24T01:48:35.569Z,6.90
2018-09-24T01:51:06.393Z,6.90
2018-09-24T01:53:34.762Z,6.80
2018-09-24T01:56:02.889Z,6.80
2018-09-24T01:58:35.902Z,6.90
2018-09-24T02:01:09.245Z,6.80
2018-09-24T02:03:37.391Z,6.80
2018-09-24T02:06:09.780Z,6.80
2018-09-24T02:08:46.595Z,6.80
2018-09-24T02:11:14.842Z,6.80
2018-09-24T02:13:53.623Z,6.80
2018-09-24T02:16:23.867Z,6.80
2018-09-24T02:18:56.536Z,6.90
2018-09-24T02:21:24.814Z,6.90
2018-09-24T02:24:03.025Z,7.00
2018-09-24T02:26:33.985Z,7.00
2018-09-24T02:29:04.278Z,7.00
2018-09-24T02:31:39.141Z,7.00
2018-09-24T02:34:08.283Z,7.00
2018-09-24T02:36:38.898Z,7.00
2018-09-24T02:39:14.435Z,6.90
2018-09-24T02:41:47.071Z,6.90
2018-09-24T02:44:21.722Z,6.80
2018-09-24T02:46:52.632Z,6.80
2018-09-24T02:49:23.122Z,6.80
2018-09-24T02:51:53.571Z,6.70
2018-09-24T02:54:21.775Z,6.70
2018-09-24T02:56:55.403Z,6.80
2018-09-24T02:59:23.620Z,6.70
2018-09-24T03:01:55.874Z,6.70
2018-09-24T03:04:33.671Z,6.70
2018-09-24T03:07:01.748Z,6.70
2018-09-24T03:09:33.359Z,6.70
2018-09-24T03:12:15.938Z,6.60
2018-09-24T03:14:44.038Z,6.60
2018-09-24T03:17:17.002Z,6.50
2018-09-24T03:19:45.300Z,6.50
2018-09-24T03:22:23.722Z,6.50
2018-09-24T03:24:52.783Z,6.50
2018-09-24T03:27:26.090Z,6.40
2018-09-24T03:29:56.502Z,6.40
2018-09-24T03:32:24.806Z,6.30
2018-09-24T03:34:52.810Z,6.30
2018-09-24T03:37:23.710Z,6.20
2018-09-24T03:39:51.751Z,6.20
2018-09-24T03:42:22.617Z,6.20
2018-09-24T03:44:55.916Z,6.20
2018-09-24T03:47:32.426Z,6.20
2018-09-24T03:50:02.803Z,6.20
2018-09-24T03:52:37.365Z,6.20
2018-09-24T03:55:08.343Z,6.20
2018-09-24T03:57:46.470Z,6.10
2018-09-24T04:00:14.625Z,6.10
2018-09-24T04:02:47.603Z,6.20
2018-09-24T04:05:21.365Z,6.10
2018-09-24T04:07:57.107Z,6.10
2018-09-24T04:13:09.164Z,6.10
2018-09-24T04:15:44.893Z,6.10
2018-09-24T04:18:18.453Z,6.00
2018-09-24T04:20:57.960Z,6.00
2018-09-24T04:23:34.594Z,6.00
2018-09-24T04:26:12.517Z,6.00
2018-09-24T04:28:55.766Z,6.10
2018-09-24T04:31:29.472Z,6.10
2018-09-24T04:34:06.112Z,6.10
2018-09-24T04:36:42.493Z,6.10
2018-09-24T04:39:19.000Z,6.20
2018-09-24T04:41:55.422Z,6.20
2018-09-24T04:44:36.927Z,6.10
2018-09-24T04:47:10.638Z,6.10
2018-09-24T04:49:44.248Z,6.10
2018-09-24T04:52:19.723Z,6.10
2018-09-24T04:54:56.254Z,6.10
2018-09-24T04:57:34.972Z,6.10
2018-09-24T05:00:10.774Z,6.00
2018-09-24T05:02:44.514Z,6.00
2018-09-24T05:05:20.926Z,6.10
2018-09-24T05:07:54.602Z,6.10
2018-09-24T05:10:33.061Z,6.10
2018-09-24T05:13:13.530Z,6.10
2018-09-24T05:15:49.278Z,6.10
2018-09-24T05:18:23.003Z,6.10
2018-09-24T05:20:59.675Z,6.10
2018-09-24T05:23:37.528Z,6.10
2018-09-24T05:26:11.208Z,6.10
2018-09-24T05:28:54.346Z,6.10
2018-09-24T05:31:29.983Z,6.10
2018-09-24T05:34:09.332Z,6.10
2018-09-24T05:36:44.927Z,6.10
2018-09-24T05:39:21.905Z,6.10
2018-09-24T05:41:55.744Z,6.10
2018-09-24T05:44:33.554Z,6.10
2018-09-24T05:47:11.479Z,6.10
2018-09-24T05:49:47.132Z,6.20
2018-09-24T05:52:28.068Z,6.20
2018-09-24T05:55:01.611Z,6.20
2018-09-24T05:57:37.324Z,6.20
2018-09-24T06:00:13.723Z,6.20
2018-09-24T06:02:50.143Z,6.30
2018-09-24T06:05:25.709Z,6.40
2018-09-24T06:08:08.723Z,6.50
2018-09-24T06:10:44.493Z,6.50
2018-09-24T06:13:20.977Z,6.60
2018-09-24T06:15:59.470Z,6.60
2018-09-24T06:18:37.413Z,6.60
2018-09-24T06:21:14.976Z,6.70
2018-09-24T06:23:55.203Z,6.80
2018-09-24T06:26:39.140Z,6.80
2018-09-24T06:29:14.719Z,6.90
2018-09-24T06:31:48.346Z,7.00
2018-09-24T06:34:24.097Z,7.10
2018-09-24T06:37:00.479Z,7.10
2018-09-24T06:39:43.550Z,7.20
2018-09-24T06:42:19.209Z,7.20
2018-09-24T06:44:58.330Z,7.20
2018-09-24T06:47:32.533Z,7.30
2018-09-24T06:50:08.340Z,7.30
2018-09-24T06:52:45.215Z,7.40
2018-09-24T06:55:23.046Z,7.40
2018-09-24T06:57:58.752Z,7.40
2018-09-24T07:00:35.224Z,7.50
2018-09-24T07:03:11.610Z,7.50
2018-09-24T07:05:49.620Z,7.60
2018-09-24T07:08:23.255Z,7.70
2018-09-24T07:10:58.919Z,7.80
2018-09-24T07:13:35.092Z,7.90
2018-09-24T07:16:11.004Z,8.10
2018-09-24T07:18:48.891Z,8.30
2018-09-24T07:21:22.479Z,8.50
2018-09-24T07:24:07.799Z,8.70
2018-09-24T07:26:44.500Z,8.90
2018-09-24T07:29:24.987Z,9.20
2018-09-24T07:32:00.724Z,9.40
2018-09-24T07:34:34.721Z,9.60
2018-09-24T07:37:13.203Z,9.80
2018-09-24T07:39:51.076Z,10.10
2018-09-24T07:42:26.658Z,10.30
2018-09-24T07:45:09.859Z,10.50
2018-09-24T07:47:45.661Z,10.80
2018-09-24T07:50:22.419Z,11.00
2018-09-24T07:52:56.187Z,11.20
2018-09-24T07:55:32.941Z,11.30
2018-09-24T07:58:11.650Z,11.30
2018-09-24T08:00:45.357Z,11.50
2018-09-24T08:03:19.029Z,11.60
2018-09-24T08:05:58.520Z,11.70
2018-09-24T08:08:34.017Z,11.80
2018-09-24T08:11:10.179Z,12.00
2018-09-24T08:13:45.929Z,12.10
2018-09-24T08:16:23.812Z,12.10
2018-09-24T08:18:59.520Z,12.20
2018-09-24T08:21:36.079Z,12.40
2018-09-24T08:24:19.183Z,12.50
2018-09-24T08:26:52.918Z,12.70
2018-09-24T08:29:29.348Z,12.80
2018-09-24T08:32:05.895Z,13.00
2018-09-24T08:34:46.374Z,13.00
2018-09-24T08:37:22.141Z,13.00
2018-09-24T08:39:57.746Z,13.00
2018-09-24T08:42:37.701Z,13.10
2018-09-24T08:45:11.444Z,13.20
2018-09-24T08:47:47.021Z,13.30
2018-09-24T08:50:30.149Z,13.40
2018-09-24T08:53:03.686Z,13.50
2018-09-24T08:55:37.283Z,13.50
2018-09-24T08:58:14.560Z,13.40
2018-09-24T09:00:48.212Z,13.40
2018-09-24T09:03:33.516Z,13.50
2018-09-24T09:06:07.964Z,13.60
2018-09-24T09:08:41.424Z,13.70
2018-09-24T09:11:20.386Z,13.70
2018-09-24T09:13:55.898Z,13.80
2018-09-24T09:16:29.600Z,13.90
2018-09-24T09:19:07.562Z,14.10
2018-09-24T09:21:43.237Z,14.00
2018-09-24T09:24:17.195Z,14.10
2018-09-24T09:26:55.332Z,14.20
2018-09-24T09:29:38.546Z,14.30
2018-09-24T09:32:12.498Z,14.40
2018-09-24T09:34:52.376Z,14.60
2018-09-24T09:37:28.062Z,14.60
2018-09-24T09:40:04.507Z,14.40
2018-09-24T09:42:40.690Z,14.50
2018-09-24T09:45:16.396Z,14.50
2018-09-24T09:47:52.717Z,14.80
2018-09-24T09:50:32.995Z,14.90
2018-09-24T09:53:09.753Z,15.10
2018-09-24T09:55:46.106Z,15.20
2018-09-24T09:58:22.618Z,15.30
2018-09-24T10:01:06.480Z,15.20
2018-09-24T10:03:41.990Z,15.10
2018-09-24T10:06:27.046Z,15.40
2018-09-24T10:09:01.049Z,15.50
2018-09-24T10:11:37.338Z,15.60
2018-09-24T10:14:14.048Z,15.40
2018-09-24T10:16:57.890Z,15.10
2018-09-24T10:19:33.554Z,14.80
2018-09-24T10:22:09.923Z,14.40
2018-09-24T10:24:46.591Z,14.10
2018-09-24T10:27:22.827Z,14.00
2018-09-24T10:29:57.078Z,13.90
2018-09-24T10:32:32.778Z,13.80
2018-09-24T10:35:10.490Z,13.90
2018-09-24T10:37:44.057Z,14.00
2018-09-24T10:40:18.754Z,14.20
2018-09-24T10:42:52.399Z,14.40
2018-09-24T10:45:31.137Z,14.50
2018-09-24T10:48:07.088Z,14.50
2018-09-24T10:50:53.141Z,14.90
2018-09-24T10:53:26.627Z,15.20
2018-09-24T10:56:02.278Z,15.30
2018-09-24T10:58:40.148Z,15.30
2018-09-24T11:01:18.015Z,15.30
2018-09-24T11:03:53.605Z,15.40
2018-09-24T11:06:30.021Z,15.30
2018-09-24T11:09:03.834Z,15.40
2018-09-24T11:11:42.322Z,15.50
2018-09-24T11:14:17.792Z,15.70
2018-09-24T11:16:53.723Z,16.00
2018-09-24T11:19:37.599Z,16.20
2018-09-24T11:22:13.446Z,16.30
2018-09-24T11:24:47.208Z,16.30
2018-09-24T11:27:25.048Z,16.20
2018-09-24T11:29:58.889Z,16.30
2018-09-24T11:32:39.131Z,16.10
2018-09-24T11:35:15.552Z,15.90
2018-09-24T11:37:51.547Z,15.60
2018-09-24T11:40:25.164Z,15.70
2018-09-24T11:43:00.791Z,15.90
2018-09-24T11:45:44.319Z,16.00
2018-09-24T11:48:24.425Z,16.10
2018-09-24T11:50:58.103Z,16.10
2018-09-24T11:53:34.845Z,16.00
2018-09-24T11:56:13.239Z,15.80
2018-09-24T11:58:48.921Z,15.50
2018-09-24T12:01:22.495Z,15.20
2018-09-24T12:03:56.499Z,14.80
2018-09-24T12:06:36.362Z,13.90
2018-09-24T12:09:12.109Z,13.20
2018-09-24T12:11:51.295Z,12.50
2018-09-24T12:14:27.027Z,11.90
2018-09-24T12:17:07.134Z,11.50
2018-09-24T12:19:50.754Z,11.20
2018-09-24T12:25:06.023Z,11.20
2018-09-24T12:27:39.639Z,11.30
2018-09-24T12:30:23.438Z,11.50
2018-09-24T12:33:01.401Z,11.90
2018-09-24T12:35:37.108Z,12.30
2018-09-24T12:38:13.563Z,12.60
2018-09-24T12:40:50.711Z,12.80
2018-09-24T12:43:28.946Z,13.00
2018-09-24T12:46:02.681Z,13.00
2018-09-24T12:48:39.143Z,13.10
2018-09-24T12:51:15.844Z,13.30
2018-09-24T12:53:55.860Z,13.20
2018-09-24T12:56:38.931Z,13.20
2018-09-24T12:59:12.562Z,13.20
2018-09-24T13:01:53.186Z,13.20
2018-09-24T13:04:36.383Z,13.20
2018-09-24T13:07:12.264Z,13.20
2018-09-24T13:09:50.208Z,13.00
2018-09-24T13:12:33.465Z,12.80
2018-09-24T13:15:06.998Z,12.70
2018-09-24T13:17:42.837Z,12.50
2018-09-24T13:20:22.583Z,12.30
2018-09-24T13:22:56.134Z,12.10
2018-09-24T13:25:29.833Z,11.90
2018-09-24T13:28:03.825Z,11.70
2018-09-24T13:30:39.364Z,11.60
2018-09-24T13:33:13.016Z,11.50
2018-09-24T13:35:48.642Z,11.40
2018-09-24T13:38:25.443Z,11.20
2018-09-24T13:41:03.408Z,11.20
2018-09-24T13:43:42.414Z,11.20
2018-09-24T13:46:16.011Z,11.30
2018-09-24T13:48:49.926Z,11.40
2018-09-24T13:51:26.138Z,11.60
2018-09-24T13:54:02.898Z,11.80
2018-09-24T13:56:38.580Z,11.90
2018-09-24T13:59:12.748Z,12.00
2018-09-24T14:01:52.687Z,12.00
2018-09-24T14:04:35.988Z,11.90
2018-09-24T14:07:11.627Z,11.80
2018-09-24T14:09:46.202Z,11.80
2018-09-24T14:12:24.686Z,11.80
2018-09-24T14:15:03.216Z,12.00
2018-09-24T14:17:39.774Z,12.00
2018-09-24T14:20:13.446Z,12.20
2018-09-24T14:22:47.107Z,12.30
2018-09-24T14:25:23.851Z,12.50
2018-09-24T14:30:37.395Z,12.80
2018-09-24T14:33:17.103Z,13.00
2018-09-24T14:35:55.635Z,13.10
2018-09-24T14:38:29.064Z,13.20
2018-09-24T14:41:02.625Z,13.20
2018-09-24T14:43:36.306Z,13.20
2018-09-24T14:46:11.955Z,13.20
2018-09-24T14:48:51.583Z,13.20
2018-09-24T14:51:29.271Z,13.10
2018-09-24T14:54:02.997Z,12.70
2018-09-24T14:56:40.306Z,12.40
2018-09-24T14:59:13.659Z,12.30
2018-09-24T15:01:47.301Z,12.20
2018-09-24T15:04:23.016Z,12.10
2018-09-24T15:06:59.250Z,11.80
2018-09-24T15:09:34.900Z,11.60
2018-09-24T15:12:16.068Z,11.40
2018-09-24T15:15:02.251Z,11.20
2018-09-24T15:17:35.888Z,11.00
2018-09-24T15:20:12.641Z,10.80
2018-09-24T15:22:50.323Z,10.60
2018-09-24T15:25:24.186Z,10.60
2018-09-24T15:28:06.005Z,10.60
2018-09-24T15:30:39.627Z,10.70
2018-09-24T15:33:13.343Z,10.80
2018-09-24T15:35:49.136Z,10.80
2018-09-24T15:38:29.594Z,10.80
2018-09-24T15:41:05.434Z,10.80
2018-09-24T15:43:38.944Z,10.90
2018-09-24T15:46:14.688Z,10.90
2018-09-24T15:48:51.199Z,11.00
2018-09-24T15:51:29.319Z,11.10
2018-09-24T15:54:13.126Z,11.10
2018-09-24T15:56:51.062Z,11.00
2018-09-24T15:59:34.454Z,11.00
2018-09-24T16:02:17.681Z,11.00
2018-09-24T16:04:55.938Z,11.00
2018-09-24T16:07:29.483Z,10.90
2018-09-24T16:10:04.996Z,10.90
2018-09-24T16:12:38.726Z,10.80
2018-09-24T16:15:14.930Z,10.80
2018-09-24T16:17:51.497Z,10.80
2018-09-24T16:20:30.297Z,10.80
2018-09-24T16:23:05.988Z,10.70
2018-09-24T16:25:39.673Z,10.80
2018-09-24T16:28:18.279Z,10.70
2018-09-24T16:30:54.737Z,10.80
2018-09-24T16:33:31.166Z,10.80
2018-09-24T16:36:09.729Z,10.80
2018-09-24T16:38:45.494Z,10.80
2018-09-24T16:41:19.072Z,10.70
2018-09-24T16:44:02.791Z,10.70
2018-09-24T16:46:42.240Z,10.70
2018-09-24T16:52:08.523Z,10.70
2018-09-24T16:54:51.772Z,10.70
2018-09-24T16:57:25.567Z,10.80
2018-09-24T17:00:01.884Z,10.80
2018-09-24T17:02:39.746Z,10.80
2018-09-24T17:05:15.618Z,10.70
2018-09-24T17:07:54.992Z,10.40
2018-09-24T17:10:32.542Z,10.30
2018-09-24T17:13:10.609Z,10.10
2018-09-24T17:15:44.563Z,9.90
2018-09-24T17:18:23.029Z,9.80
2018-09-24T17:20:59.505Z,9.70
2018-09-24T17:23:37.458Z,9.70
2018-09-24T17:26:14.057Z,9.60
2018-09-24T17:28:50.582Z,9.50
2018-09-24T17:31:30.497Z,9.50
2018-09-24T17:34:04.063Z,9.40
2018-09-24T17:36:39.863Z,9.50
2018-09-24T17:39:14.085Z,9.30
2018-09-24T17:41:55.674Z,9.30
2018-09-24T17:44:34.196Z,9.20
2018-09-24T17:47:11.838Z,9.10
2018-09-24T17:49:45.303Z,9.10
2018-09-24T17:52:20.990Z,9.00
2018-09-24T17:54:56.761Z,9.00
2018-09-24T17:57:37.552Z,9.00
2018-09-24T18:00:12.374Z,8.90
2018-09-24T18:02:48.922Z,8.80
2018-09-24T18:05:23.368Z,8.60
2018-09-24T18:08:00.526Z,8.60
2018-09-24T18:10:34.055Z,8.50
2018-09-24T18:13:10.790Z,8.40
2018-09-24T18:15:51.278Z,8.40
2018-09-24T18:18:27.139Z,8.30
2018-09-24T18:21:02.618Z,8.20
2018-09-24T18:23:45.698Z,8.20
2018-09-24T18:26:21.274Z,8.10
2018-09-24T18:28:54.821Z,8.10
2018-09-24T18:31:30.560Z,8.00
2018-09-24T18:34:08.537Z,8.00
2018-09-24T18:36:42.592Z,7.90
2018-09-24T18:39:18.328Z,7.80
2018-09-24T18:41:54.090Z,7.80
2018-09-24T18:44:30.720Z,7.70
2018-09-24T18:47:09.256Z,7.70
2018-09-24T18:49:47.253Z,7.60
2018-09-24T18:52:23.055Z,7.60
2018-09-24T18:55:01.522Z,7.50
2018-09-24T18:57:37.373Z,7.50
2018-09-24T19:00:13.862Z,7.40
2018-09-24T19:02:51.665Z,7.40
2018-09-24T19:05:30.128Z,7.30
2018-09-24T19:08:08.098Z,7.30
2018-09-24T19:10:41.871Z,7.30
2018-09-24T19:13:18.421Z,7.20
2018-09-24T19:15:54.237Z,7.20
2018-09-24T19:18:28.135Z,7.20
2018-09-24T19:21:04.046Z,7.20
2018-09-24T19:23:37.722Z,7.10
2018-09-24T19:26:16.771Z,7.10
2018-09-24T19:28:52.615Z,7.10
2018-09-24T19:31:36.053Z,7.00
2018-09-24T19:34:16.218Z,7.00
2018-09-24T19:36:52.407Z,7.00
2018-09-24T19:39:26.290Z,6.90
2018-09-24T19:42:04.873Z,6.90
2018-09-24T19:44:48.991Z,6.90
2018-09-24T19:47:25.702Z,6.90
2018-09-24T19:50:06.115Z,6.90
2018-09-24T19:52:45.441Z,6.90
2018-09-24T19:55:23.253Z,6.80
2018-09-24T19:57:56.700Z,6.80
2018-09-24T20:00:30.461Z,6.80
2018-09-24T20:03:06.996Z,6.80
2018-09-24T20:05:50.443Z,6.80
2018-09-24T20:08:28.225Z,6.70
2018-09-24T20:11:01.765Z,6.70
2018-09-24T20:13:35.592Z,6.70
2018-09-24T20:16:14.193Z,6.60
2018-09-24T20:18:52.723Z,6.60
2018-09-24T20:21:28.442Z,6.60
2018-09-24T20:24:02.170Z,6.60
2018-09-24T20:26:45.324Z,6.50
2018-09-24T20:29:21.126Z,6.50
2018-09-24T20:31:57.468Z,6.50
2018-09-24T20:34:33.931Z,6.40
2018-09-24T20:37:19.093Z,6.40
2018-09-24T20:39:55.846Z,6.40
2018-09-24T20:42:35.886Z,6.30
2018-09-24T20:45:19.829Z,6.30
2018-09-24T20:47:55.517Z,6.30
2018-09-24T20:50:31.270Z,6.30
2018-09-24T20:53:11.311Z,6.30
2018-09-24T20:55:47.059Z,6.30
2018-09-24T20:58:23.269Z,6.30
2018-09-24T21:00:59.003Z,6.30
2018-09-24T21:03:35.458Z,6.30
2018-09-24T21:06:17.032Z,6.40
2018-09-24T21:08:54.942Z,6.40
2018-09-24T21:11:28.549Z,6.40
2018-09-24T21:14:02.052Z,6.50
2018-09-24T21:16:38.258Z,6.50
2018-09-24T21:19:12.213Z,6.50
2018-09-24T21:21:47.890Z,6.50
2018-09-24T21:24:21.678Z,6.50
2018-09-24T21:26:58.922Z,6.50
2018-09-24T21:29:34.694Z,6.50
2018-09-24T21:32:14.610Z,6.50
2018-09-24T21:34:48.129Z,6.50
2018-09-24T21:37:21.754Z,6.50
2018-09-24T21:40:01.025Z,6.50
2018-09-24T21:42:36.496Z,6.50
2018-09-24T21:45:20.727Z,6.40
2018-09-24T21:47:54.309Z,6.40
2018-09-24T21:50:38.603Z,6.40
2018-09-24T21:53:24.432Z,6.40
2018-09-24T21:56:00.180Z,6.40
2018-09-24T21:58:33.911Z,6.30
2018-09-24T22:01:15.645Z,6.30
2018-09-24T22:03:53.543Z,6.20
2018-09-24T22:06:36.744Z,6.20
2018-09-24T22:09:15.046Z,6.10
2018-09-24T22:11:48.812Z,6.10
2018-09-24T22:14:22.361Z,6.10
2018-09-24T22:16:59.050Z,6.10
2018-09-24T22:19:37.567Z,6.20
2018-09-24T22:22:11.491Z,6.20
2018-09-24T22:24:57.726Z,6.10
2018-09-24T22:27:33.303Z,6.10
2018-09-24T22:30:16.615Z,6.10
2018-09-24T22:32:57.627Z,6.00
2018-09-24T22:35:33.270Z,6.00
2018-09-24T22:38:07.011Z,5.90
2018-09-24T22:40:43.459Z,5.90
2018-09-24T22:43:26.943Z,5.90
2018-09-24T22:46:03.392Z,5.80
2018-09-24T22:48:41.378Z,5.80
2018-09-24T22:51:17.090Z,5.70
2018-09-24T22:53:53.379Z,5.70
2018-09-24T22:56:33.870Z,5.70
2018-09-24T22:59:11.783Z,5.60
2018-09-24T23:01:47.544Z,5.60
2018-09-24T23:04:30.757Z,5.50
2018-09-24T23:07:06.506Z,5.50
2018-09-24T23:09:49.661Z,5.40
2018-09-24T23:12:35.033Z,5.40
2018-09-24T23:15:12.881Z,5.30
2018-09-24T23:17:51.718Z,5.40
2018-09-24T23:20:27.426Z,5.40
2018-09-24T23:23:08.794Z,5.40
2018-09-24T23:25:45.049Z,5.40
2018-09-24T23:28:21.514Z,5.40
2018-09-24T23:30:57.218Z,5.40
2018-09-24T23:33:37.313Z,5.50
2018-09-24T23:36:13.630Z,5.40
2018-09-24T23:38:50.071Z,5.40
2018-09-24T23:41:25.861Z,5.40
2018-09-24T23:44:05.951Z,5.40
2018-09-24T23:46:42.459Z,5.40
2018-09-24T23:49:18.925Z,5.40
2018-09-24T23:51:57.699Z,5.40
2018-09-24T23:54:33.282Z,5.40
2018-09-24T23:57:06.940Z,5.40
2018-09-24T23:59:42.704Z,5.50
